This is the latest recevied weather packets stored in our database for station/object 9A3SWO. If no packets are shown the sender has not sent any weather packets the latest 10 day(s).
| Time | Temp. | Humidity | Pressure | Rain* | Wind** | Luminosity | Snow |
|---|---|---|---|---|---|---|---|
| 1777354981 | 16.11° C | 47% | 1020.5 hPa | - | - | - | - |
| 1777354381 | 16.11° C | 47% | 1020.5 hPa | - | - | - | - |
| 1777353781 | 16.11° C | 47% | 1020.4 hPa | - | - | - | - |
| 1777353181 | 16.11° C | 47% | 1020.3 hPa | - | - | - | - |
| 1777352581 | 16.11° C | 47% | 1020.3 hPa | - | - | - | - |
| 1777351980 | 16.11° C | 47% | 1020.3 hPa | - | - | - | - |
| 1777351381 | 15.56° C | 48% | 1020.2 hPa | - | - | - | - |
| 1777350781 | 15.56° C | 48% | 1020.2 hPa | - | - | - | - |
| 1777350180 | 15.56° C | 48% | 1020.1 hPa | - | - | - | - |
| 1777349581 | 15.56° C | 49% | 1020.1 hPa | - | - | - | - |
| 1777348981 | 15.56° C | 49% | 1020.1 hPa | - | - | - | - |
| 1777348380 | 15.56° C | 49% | 1020.2 hPa | - | - | - | - |
| 1777347780 | 15° C | 50% | 1020.1 hPa | - | - | - | - |
| 1777347180 | 15° C | 50% | 1020.1 hPa | - | - | - | - |
| 1777346580 | 15° C | 51% | 1020.1 hPa | - | - | - | - |
| 1777345981 | 11.67° C | 59% | 1020.5 hPa | - | - | - | - |
| 1777345380 | 12.22° C | 58% | 1020.3 hPa | - | - | - | - |
| 1777344781 | 12.22° C | 57% | 1020.4 hPa | - | - | - | - |
| 1777344180 | 12.22° C | 57% | 1020.4 hPa | - | - | - | - |
| 1777343580 | 12.22° C | 57% | 1020.3 hPa | - | - | - | - |
| 1777342980 | 12.22° C | 58% | 1020.4 hPa | - | - | - | - |
| 1777342380 | 12.22° C | 57% | 1020.4 hPa | - | - | - | - |
| 1777341780 | 12.22° C | 58% | 1020.5 hPa | - | - | - | - |
| 1777341180 | 12.22° C | 58% | 1020.5 hPa | - | - | - | - |
| 1777340580 | 12.78° C | 57% | 1020.4 hPa | - | - | - | - |
* Rain since midnight (hover to see other rain measurements)
** Current wind speed in m/s (hover to see current wind gust speed)